GMMX/RAK METAR and TAF weather

Enter ICAO airport designator
Station Type Date Time Source
GMMX METAR 2021/09/24 01:00 UTC NOAA

GMMX 240100Z 26006KT 8000 FEW016 SCT200 19/15 Q1014 NOSIG


Station Type Date Time Source
GMMX Decoded METAR 2021/09/24 01:00 UTC NOAA

Marrakech, Morocco (GMMX) 31-37N 008-02W 466M
Sep 23, 2021 - 09:00 PM EDT / 2021.09.24 0100 UTC
Wind: from the W (260 degrees) at 7 MPH (6 KT):0
Visibility: 4 mile(s):0
Sky conditions: partly cloudy
Temperature: 66 F (19 C)
Dew Point: 59 F (15 C)
Relative Humidity: 77%
Pressure (altimeter): 29.94 in. Hg (1014 hPa)
ob: GMMX 240100Z 26006KT 8000 FEW016 SCT200 19/15 Q1014 NOSIG
cycle: 1

Station Type Date Time Source
GMMX TAF 2021/09/23 18:30 UTC NOAA

TAF TAF GMMX 231700Z 2318/2424 28006KT 8000 SCT026 SCT080
TEMPO 2405/2409 4000 BR BKN006
TEMPO 2415/2420 34016KT

Example: see airport list